sensor_id;sensor_type;location;lat;lon;timestamp;pressure;altitude;pressure_sealevel;temperature;humidity
41102;BME280;26845;50.190;19.178;2023-02-14T00:02:19;100460.98;;;4.52;98.71
41102;BME280;26845;50.190;19.178;2023-02-14T00:04:45;100461.20;;;4.54;98.22
41102;BME280;26845;50.190;19.178;2023-02-14T00:07:12;100459.84;;;4.48;97.80
41102;BME280;26845;50.190;19.178;2023-02-14T00:09:38;100461.42;;;4.40;97.36
41102;BME280;26845;50.190;19.178;2023-02-14T00:12:05;100461.26;;;4.37;97.59
41102;BME280;26845;50.190;19.178;2023-02-14T00:14:32;100460.83;;;4.32;97.56
41102;BME280;26845;50.190;19.178;2023-02-14T00:17:16;100459.85;;;4.21;97.16
41102;BME280;26845;50.190;19.178;2023-02-14T00:19:42;100460.38;;;4.08;97.01
41102;BME280;26845;50.190;19.178;2023-02-14T00:22:08;100456.73;;;4.02;97.16
41102;BME280;26845;50.190;19.178;2023-02-14T00:24:34;100460.34;;;3.92;97.11
41102;BME280;26845;50.190;19.178;2023-02-14T00:27:00;100457.67;;;3.83;97.12
41102;BME280;26845;50.190;19.178;2023-02-14T00:29:29;100462.05;;;3.81;97.36
41102;BME280;26845;50.190;19.178;2023-02-14T00:31:56;100457.36;;;3.78;97.23
41102;BME280;26845;50.190;19.178;2023-02-14T00:34:21;100462.64;;;3.72;97.16
41102;BME280;26845;50.190;19.178;2023-02-14T00:36:48;100461.73;;;3.69;97.21
41102;BME280;26845;50.190;19.178;2023-02-14T00:39:14;100470.55;;;3.69;97.29
41102;BME280;26845;50.190;19.178;2023-02-14T00:41:41;100471.34;;;3.67;97.16
41102;BME280;26845;50.190;19.178;2023-02-14T00:44:08;100465.66;;;3.68;97.65
41102;BME280;26845;50.190;19.178;2023-02-14T00:46:35;100467.41;;;3.73;97.67
41102;BME280;26845;50.190;19.178;2023-02-14T00:49:04;100474.94;;;3.77;97.40
41102;BME280;26845;50.190;19.178;2023-02-14T00:51:30;100473.69;;;3.76;97.24
41102;BME280;26845;50.190;19.178;2023-02-14T00:53:56;100477.91;;;3.69;96.84
41102;BME280;26845;50.190;19.178;2023-02-14T00:56:22;100477.70;;;3.66;97.00
41102;BME280;26845;50.190;19.178;2023-02-14T00:58:48;100470.69;;;3.63;96.79
41102;BME280;26845;50.190;19.178;2023-02-14T01:01:15;100471.46;;;3.57;96.89
41102;BME280;26845;50.190;19.178;2023-02-14T01:03:41;100470.25;;;3.53;96.81
41102;BME280;26845;50.190;19.178;2023-02-14T01:06:08;100471.61;;;3.45;96.76
41102;BME280;26845;50.190;19.178;2023-02-14T01:08:35;100470.73;;;3.40;96.80
41102;BME280;26845;50.190;19.178;2023-02-14T01:11:17;100471.04;;;3.35;96.79
41102;BME280;26845;50.190;19.178;2023-02-14T01:13:46;100470.05;;;3.30;96.77
41102;BME280;26845;50.190;19.178;2023-02-14T01:16:15;100470.33;;;3.23;96.89
41102;BME280;26845;50.190;19.178;2023-02-14T01:18:41;100459.05;;;3.15;96.97
41102;BME280;26845;50.190;19.178;2023-02-14T01:23:42;100452.56;;;3.01;97.08
41102;BME280;26845;50.190;19.178;2023-02-14T01:26:08;100450.84;;;2.96;97.11
41102;BME280;26845;50.190;19.178;2023-02-14T01:28:35;100445.98;;;2.91;97.29
41102;BME280;26845;50.190;19.178;2023-02-14T01:31:12;100442.23;;;2.85;97.51
41102;BME280;26845;50.190;19.178;2023-02-14T01:33:38;100443.42;;;2.82;97.87
41102;BME280;26845;50.190;19.178;2023-02-14T01:36:04;100445.17;;;2.79;97.65
41102;BME280;26845;50.190;19.178;2023-02-14T01:38:30;100447.09;;;2.77;97.67
41102;BME280;26845;50.190;19.178;2023-02-14T01:40:56;100447.28;;;2.76;98.00
41102;BME280;26845;50.190;19.178;2023-02-14T01:43:23;100447.71;;;2.74;98.04
41102;BME280;26845;50.190;19.178;2023-02-14T01:45:49;100442.23;;;2.74;98.10
41102;BME280;26845;50.190;19.178;2023-02-14T01:48:18;100440.02;;;2.73;98.13
41102;BME280;26845;50.190;19.178;2023-02-14T01:50:46;100439.98;;;2.71;98.33
41102;BME280;26845;50.190;19.178;2023-02-14T01:53:22;100434.29;;;2.68;98.49
41102;BME280;26845;50.190;19.178;2023-02-14T01:55:56;100436.66;;;2.67;98.38
41102;BME280;26845;50.190;19.178;2023-02-14T01:58:25;100439.73;;;2.67;98.43
41102;BME280;26845;50.190;19.178;2023-02-14T02:00:53;100440.75;;;2.68;98.28
41102;BME280;26845;50.190;19.178;2023-02-14T02:03:33;100436.60;;;2.70;98.27
41102;BME280;26845;50.190;19.178;2023-02-14T02:06:09;100435.29;;;2.70;98.30
41102;BME280;26845;50.190;19.178;2023-02-14T02:08:40;100432.94;;;2.71;98.32
41102;BME280;26845;50.190;19.178;2023-02-14T02:11:07;100427.11;;;2.70;98.12
41102;BME280;26845;50.190;19.178;2023-02-14T02:13:33;100430.48;;;2.71;98.17
41102;BME280;26845;50.190;19.178;2023-02-14T02:23:53;100435.41;;;2.69;98.15
41102;BME280;26845;50.190;19.178;2023-02-14T02:29:32;100438.16;;;2.73;98.07
41102;BME280;26845;50.190;19.178;2023-02-14T02:52:07;100440.60;;;2.79;97.89
41102;BME280;26845;50.190;19.178;2023-02-14T02:54:58;100446.26;;;2.77;97.93
41102;BME280;26845;50.190;19.178;2023-02-14T02:57:28;100445.96;;;2.75;97.88
41102;BME280;26845;50.190;19.178;2023-02-14T02:59:57;100444.45;;;2.75;97.79
41102;BME280;26845;50.190;19.178;2023-02-14T03:02:36;100442.14;;;2.75;97.88
41102;BME280;26845;50.190;19.178;2023-02-14T03:05:26;100444.77;;;2.72;98.04
41102;BME280;26845;50.190;19.178;2023-02-14T03:07:53;100442.27;;;2.69;97.89
41102;BME280;26845;50.190;19.178;2023-02-14T03:10:25;100443.50;;;2.67;98.10
41102;BME280;26845;50.190;19.178;2023-02-14T03:19:03;100432.02;;;2.63;98.03
41102;BME280;26845;50.190;19.178;2023-02-14T03:25:00;100437.55;;;2.59;98.27
41102;BME280;26845;50.190;19.178;2023-02-14T03:27:38;100436.72;;;2.56;98.22
41102;BME280;26845;50.190;19.178;2023-02-14T03:35:11;100441.27;;;2.53;98.39
41102;BME280;26845;50.190;19.178;2023-02-14T03:37:50;100437.14;;;2.52;98.66
41102;BME280;26845;50.190;19.178;2023-02-14T03:42:50;100441.80;;;2.50;98.82
41102;BME280;26845;50.190;19.178;2023-02-14T03:45:26;100440.45;;;2.50;98.78
41102;BME280;26845;50.190;19.178;2023-02-14T03:47:55;100440.60;;;2.52;98.59
41102;BME280;26845;50.190;19.178;2023-02-14T03:50:22;100443.58;;;2.55;98.53
41102;BME280;26845;50.190;19.178;2023-02-14T03:52:52;100439.02;;;2.55;98.88
41102;BME280;26845;50.190;19.178;2023-02-14T03:55:23;100439.13;;;2.53;98.89
41102;BME280;26845;50.190;19.178;2023-02-14T03:58:01;100437.05;;;2.52;98.63
41102;BME280;26845;50.190;19.178;2023-02-14T04:00:29;100442.27;;;2.53;98.72
41102;BME280;26845;50.190;19.178;2023-02-14T04:03:03;100437.48;;;2.52;98.55
41102;BME280;26845;50.190;19.178;2023-02-14T04:05:32;100439.17;;;2.50;98.63
41102;BME280;26845;50.190;19.178;2023-02-14T04:08:00;100443.48;;;2.49;98.85
41102;BME280;26845;50.190;19.178;2023-02-14T04:10:25;100438.23;;;2.47;98.63
41102;BME280;26845;50.190;19.178;2023-02-14T04:12:52;100442.42;;;2.48;98.62
41102;BME280;26845;50.190;19.178;2023-02-14T04:15:19;100444.22;;;2.48;98.63
41102;BME280;26845;50.190;19.178;2023-02-14T04:17:45;100445.33;;;2.48;98.59
41102;BME280;26845;50.190;19.178;2023-02-14T04:20:30;100438.50;;;2.46;98.74
41102;BME280;26845;50.190;19.178;2023-02-14T04:22:56;100445.23;;;2.45;98.64
41102;BME280;26845;50.190;19.178;2023-02-14T04:25:22;100444.70;;;2.44;98.59
41102;BME280;26845;50.190;19.178;2023-02-14T04:27:48;100445.23;;;2.47;98.65
41102;BME280;26845;50.190;19.178;2023-02-14T04:30:15;100444.05;;;2.46;98.53
41102;BME280;26845;50.190;19.178;2023-02-14T04:32:43;100440.77;;;2.46;98.63
41102;BME280;26845;50.190;19.178;2023-02-14T04:35:09;100443.89;;;2.48;98.56
41102;BME280;26845;50.190;19.178;2023-02-14T04:37:34;100444.40;;;2.47;98.42
41102;BME280;26845;50.190;19.178;2023-02-14T04:40:00;100447.30;;;2.47;98.37
41102;BME280;26845;50.190;19.178;2023-02-14T04:42:26;100446.14;;;2.46;98.41
41102;BME280;26845;50.190;19.178;2023-02-14T04:44:53;100452.65;;;2.45;98.43
41102;BME280;26845;50.190;19.178;2023-02-14T04:47:19;100455.52;;;2.44;98.34
41102;BME280;26845;50.190;19.178;2023-02-14T04:49:45;100449.45;;;2.44;98.49
41102;BME280;26845;50.190;19.178;2023-02-14T04:52:11;100451.51;;;2.44;98.39
41102;BME280;26845;50.190;19.178;2023-02-14T04:54:37;100453.89;;;2.48;98.44
41102;BME280;26845;50.190;19.178;2023-02-14T04:57:03;100457.63;;;2.51;98.40
41102;BME280;26845;50.190;19.178;2023-02-14T04:59:29;100455.73;;;2.51;98.32
41102;BME280;26845;50.190;19.178;2023-02-14T05:01:55;100457.50;;;2.52;98.20
41102;BME280;26845;50.190;19.178;2023-02-14T05:04:22;100457.81;;;2.51;98.19
41102;BME280;26845;50.190;19.178;2023-02-14T05:06:48;100454.30;;;2.49;98.39
41102;BME280;26845;50.190;19.178;2023-02-14T05:09:15;100455.34;;;2.46;98.34
41102;BME280;26845;50.190;19.178;2023-02-14T05:11:41;100455.63;;;2.41;98.56
41102;BME280;26845;50.190;19.178;2023-02-14T05:14:07;100454.14;;;2.39;98.39
41102;BME280;26845;50.190;19.178;2023-02-14T05:16:33;100459.11;;;2.40;98.49
41102;BME280;26845;50.190;19.178;2023-02-14T05:19:00;100456.48;;;2.42;98.42
41102;BME280;26845;50.190;19.178;2023-02-14T05:21:26;100460.94;;;2.44;98.44
41102;BME280;26845;50.190;19.178;2023-02-14T05:23:52;100460.27;;;2.43;98.79
41102;BME280;26845;50.190;19.178;2023-02-14T05:26:18;100458.99;;;2.39;98.77
41102;BME280;26845;50.190;19.178;2023-02-14T05:28:45;100461.85;;;2.34;98.77
41102;BME280;26845;50.190;19.178;2023-02-14T05:31:11;100467.11;;;2.32;98.78
41102;BME280;26845;50.190;19.178;2023-02-14T05:33:37;100467.52;;;2.30;98.98
41102;BME280;26845;50.190;19.178;2023-02-14T05:36:03;100470.04;;;2.29;98.84
41102;BME280;26845;50.190;19.178;2023-02-14T05:38:30;100471.94;;;2.29;98.98
41102;BME280;26845;50.190;19.178;2023-02-14T05:40:57;100468.81;;;2.28;98.66
41102;BME280;26845;50.190;19.178;2023-02-14T05:43:23;100469.84;;;2.28;98.89
41102;BME280;26845;50.190;19.178;2023-02-14T05:45:52;100465.29;;;2.27;99.12
41102;BME280;26845;50.190;19.178;2023-02-14T05:48:18;100466.83;;;2.23;99.32
41102;BME280;26845;50.190;19.178;2023-02-14T05:50:45;100475.65;;;2.22;99.35
41102;BME280;26845;50.190;19.178;2023-02-14T05:53:12;100477.44;;;2.20;99.54
41102;BME280;26845;50.190;19.178;2023-02-14T05:55:40;100481.16;;;2.18;99.68
41102;BME280;26845;50.190;19.178;2023-02-14T05:58:06;100477.39;;;2.16;99.63
41102;BME280;26845;50.190;19.178;2023-02-14T06:00:31;100479.58;;;2.15;99.82
41102;BME280;26845;50.190;19.178;2023-02-14T06:02:57;100476.35;;;2.13;99.83
41102;BME280;26845;50.190;19.178;2023-02-14T06:05:23;100483.34;;;2.13;99.64
41102;BME280;26845;50.190;19.178;2023-02-14T06:07:50;100484.02;;;2.13;99.37
41102;BME280;26845;50.190;19.178;2023-02-14T06:10:20;100487.08;;;2.14;99.47
41102;BME280;26845;50.190;19.178;2023-02-14T06:12:47;100483.77;;;2.14;99.40
41102;BME280;26845;50.190;19.178;2023-02-14T06:15:14;100492.10;;;2.13;99.63
41102;BME280;26845;50.190;19.178;2023-02-14T06:17:40;100492.30;;;2.13;99.77
41102;BME280;26845;50.190;19.178;2023-02-14T06:20:07;100495.70;;;2.13;99.83
41102;BME280;26845;50.190;19.178;2023-02-14T06:22:41;100496.96;;;2.14;99.92
41102;BME280;26845;50.190;19.178;2023-02-14T06:25:06;100492.73;;;2.13;99.86
41102;BME280;26845;50.190;19.178;2023-02-14T06:27:33;100489.98;;;2.13;99.83
41102;BME280;26845;50.190;19.178;2023-02-14T06:29:59;100494.45;;;2.13;99.77
41102;BME280;26845;50.190;19.178;2023-02-14T06:32:25;100496.35;;;2.14;99.57
41102;BME280;26845;50.190;19.178;2023-02-14T06:34:51;100500.48;;;2.15;99.74
41102;BME280;26845;50.190;19.178;2023-02-14T06:37:17;100498.83;;;2.16;99.57
41102;BME280;26845;50.190;19.178;2023-02-14T06:39:44;100495.79;;;2.17;99.51
41102;BME280;26845;50.190;19.178;2023-02-14T06:42:10;100496.44;;;2.19;99.42
41102;BME280;26845;50.190;19.178;2023-02-14T06:44:36;100502.48;;;2.20;99.34
41102;BME280;26845;50.190;19.178;2023-02-14T06:47:03;100503.39;;;2.21;99.29
41102;BME280;26845;50.190;19.178;2023-02-14T06:49:29;100507.61;;;2.22;99.43
41102;BME280;26845;50.190;19.178;2023-02-14T06:51:55;100506.49;;;2.22;99.39
41102;BME280;26845;50.190;19.178;2023-02-14T06:54:21;100506.71;;;2.25;99.52
41102;BME280;26845;50.190;19.178;2023-02-14T06:56:47;100506.59;;;2.29;99.44
41102;BME280;26845;50.190;19.178;2023-02-14T06:59:13;100505.85;;;2.32;99.16
41102;BME280;26845;50.190;19.178;2023-02-14T07:01:39;100508.75;;;2.36;99.25
41102;BME280;26845;50.190;19.178;2023-02-14T07:04:05;100507.55;;;2.40;99.16
41102;BME280;26845;50.190;19.178;2023-02-14T07:06:31;100507.59;;;2.44;99.10
41102;BME280;26845;50.190;19.178;2023-02-14T07:08:58;100504.25;;;2.46;98.94
41102;BME280;26845;50.190;19.178;2023-02-14T07:11:24;100508.15;;;2.47;99.01
41102;BME280;26845;50.190;19.178;2023-02-14T07:13:50;100511.35;;;2.49;98.93
41102;BME280;26845;50.190;19.178;2023-02-14T07:16:16;100513.77;;;2.53;98.97
41102;BME280;26845;50.190;19.178;2023-02-14T07:18:42;100517.95;;;2.58;98.87
41102;BME280;26845;50.190;19.178;2023-02-14T07:21:08;100517.89;;;2.61;98.83
41102;BME280;26845;50.190;19.178;2023-02-14T07:23:34;100509.39;;;2.63;98.68
41102;BME280;26845;50.190;19.178;2023-02-14T07:26:00;100512.19;;;2.66;98.86
41102;BME280;26845;50.190;19.178;2023-02-14T07:28:27;100513.11;;;2.67;98.77
41102;BME280;26845;50.190;19.178;2023-02-14T07:31:00;100516.14;;;2.68;98.64
41102;BME280;26845;50.190;19.178;2023-02-14T07:33:26;100515.02;;;2.72;98.57
41102;BME280;26845;50.190;19.178;2023-02-14T07:35:53;100518.23;;;2.75;98.44
41102;BME280;26845;50.190;19.178;2023-02-14T07:38:19;100518.70;;;2.77;98.33
41102;BME280;26845;50.190;19.178;2023-02-14T07:40:45;100519.93;;;2.80;98.59
41102;BME280;26845;50.190;19.178;2023-02-14T07:43:11;100519.41;;;2.83;98.59
41102;BME280;26845;50.190;19.178;2023-02-14T07:45:37;100523.94;;;2.87;98.35
41102;BME280;26845;50.190;19.178;2023-02-14T07:48:03;100522.09;;;2.90;98.17
41102;BME280;26845;50.190;19.178;2023-02-14T07:50:30;100523.66;;;2.91;97.77
41102;BME280;26845;50.190;19.178;2023-02-14T07:52:55;100518.52;;;2.92;98.11
41102;BME280;26845;50.190;19.178;2023-02-14T07:55:22;100515.41;;;2.96;98.34
41102;BME280;26845;50.190;19.178;2023-02-14T07:57:50;100516.91;;;2.98;98.11
41102;BME280;26845;50.190;19.178;2023-02-14T08:00:16;100514.23;;;3.00;98.19
41102;BME280;26845;50.190;19.178;2023-02-14T08:02:42;100513.98;;;3.03;98.19
41102;BME280;26845;50.190;19.178;2023-02-14T08:05:08;100520.33;;;3.05;97.76
41102;BME280;26845;50.190;19.178;2023-02-14T08:07:34;100519.05;;;3.05;97.68
41102;BME280;26845;50.190;19.178;2023-02-14T08:10:00;100517.89;;;3.06;97.73
41102;BME280;26845;50.190;19.178;2023-02-14T08:12:30;100516.32;;;3.07;97.70
41102;BME280;26845;50.190;19.178;2023-02-14T08:15:14;100515.34;;;3.11;98.15
41102;BME280;26845;50.190;19.178;2023-02-14T08:17:58;100512.33;;;3.17;97.88
41102;BME280;26845;50.190;19.178;2023-02-14T08:20:24;100516.18;;;3.21;97.62
41102;BME280;26845;50.190;19.178;2023-02-14T08:22:51;100515.89;;;3.24;97.57
41102;BME280;26845;50.190;19.178;2023-02-14T08:25:17;100521.15;;;3.28;97.84
41102;BME280;26845;50.190;19.178;2023-02-14T08:27:43;100522.46;;;3.35;97.70
41102;BME280;26845;50.190;19.178;2023-02-14T08:30:09;100527.88;;;3.43;97.77
41102;BME280;26845;50.190;19.178;2023-02-14T08:32:35;100523.88;;;3.49;97.23
41102;BME280;26845;50.190;19.178;2023-02-14T08:35:01;100525.11;;;3.53;97.28
41102;BME280;26845;50.190;19.178;2023-02-14T08:37:27;100522.91;;;3.60;97.29
41102;BME280;26845;50.190;19.178;2023-02-14T08:39:53;100525.20;;;3.67;97.29
41102;BME280;26845;50.190;19.178;2023-02-14T08:42:20;100523.05;;;3.73;96.82
41102;BME280;26845;50.190;19.178;2023-02-14T08:44:46;100527.05;;;3.75;96.57
41102;BME280;26845;50.190;19.178;2023-02-14T08:47:12;100535.08;;;3.79;96.45
41102;BME280;26845;50.190;19.178;2023-02-14T08:49:38;100534.47;;;3.85;96.56
41102;BME280;26845;50.190;19.178;2023-02-14T08:52:04;100536.95;;;3.85;95.55
41102;BME280;26845;50.190;19.178;2023-02-14T08:54:30;100539.16;;;3.84;95.76
41102;BME280;26845;50.190;19.178;2023-02-14T08:56:56;100546.48;;;3.84;94.96
41102;BME280;26845;50.190;19.178;2023-02-14T08:59:23;100539.98;;;3.79;94.72
41102;BME280;26845;50.190;19.178;2023-02-14T09:01:48;100543.08;;;3.82;95.70
41102;BME280;26845;50.190;19.178;2023-02-14T09:04:15;100544.78;;;3.88;95.36
41102;BME280;26845;50.190;19.178;2023-02-14T09:06:41;100550.98;;;3.92;95.88
41102;BME280;26845;50.190;19.178;2023-02-14T09:09:07;100547.13;;;3.95;94.76
41102;BME280;26845;50.190;19.178;2023-02-14T09:11:33;100550.28;;;3.93;95.07
41102;BME280;26845;50.190;19.178;2023-02-14T09:13:59;100549.66;;;3.95;95.43
41102;BME280;26845;50.190;19.178;2023-02-14T09:16:25;100548.26;;;4.00;95.52
41102;BME280;26845;50.190;19.178;2023-02-14T09:18:52;100546.78;;;4.08;96.11
41102;BME280;26845;50.190;19.178;2023-02-14T09:21:21;100546.09;;;4.18;95.57
41102;BME280;26845;50.190;19.178;2023-02-14T09:23:47;100543.09;;;4.31;96.62
41102;BME280;26845;50.190;19.178;2023-02-14T09:26:14;100544.61;;;4.42;94.98
41102;BME280;26845;50.190;19.178;2023-02-14T09:28:40;100537.21;;;4.38;93.64
41102;BME280;26845;50.190;19.178;2023-02-14T09:31:19;100540.81;;;4.35;93.82
41102;BME280;26845;50.190;19.178;2023-02-14T09:33:46;100551.02;;;4.33;93.78
41102;BME280;26845;50.190;19.178;2023-02-14T09:36:12;100548.92;;;4.31;93.76
41102;BME280;26845;50.190;19.178;2023-02-14T09:38:55;100544.05;;;4.34;94.42
41102;BME280;26845;50.190;19.178;2023-02-14T09:44:11;100556.29;;;4.52;95.08
41102;BME280;26845;50.190;19.178;2023-02-14T09:46:45;100551.36;;;4.64;94.79
41102;BME280;26845;50.190;19.178;2023-02-14T09:49:16;100546.86;;;4.73;94.81
41102;BME280;26845;50.190;19.178;2023-02-14T09:51:50;100550.77;;;4.86;94.98
41102;BME280;26845;50.190;19.178;2023-02-14T09:54:23;100547.06;;;4.97;94.81
41102;BME280;26845;50.190;19.178;2023-02-14T10:05:05;100550.66;;;5.39;94.27
41102;BME280;26845;50.190;19.178;2023-02-14T10:07:48;100540.35;;;5.46;93.49
41102;BME280;26845;50.190;19.178;2023-02-14T10:10:36;100543.96;;;5.47;93.75
41102;BME280;26845;50.190;19.178;2023-02-14T10:13:14;100546.27;;;5.54;93.19
41102;BME280;26845;50.190;19.178;2023-02-14T10:15:45;100543.61;;;5.59;93.61
41102;BME280;26845;50.190;19.178;2023-02-14T10:18:20;100545.19;;;5.70;93.79
41102;BME280;26845;50.190;19.178;2023-02-14T10:20:52;100541.23;;;5.79;93.86
41102;BME280;26845;50.190;19.178;2023-02-14T10:26:04;100541.64;;;5.82;92.48
41102;BME280;26845;50.190;19.178;2023-02-14T10:28:47;100543.58;;;5.86;92.79
41102;BME280;26845;50.190;19.178;2023-02-14T10:39:43;100537.90;;;5.50;90.79
41102;BME280;26845;50.190;19.178;2023-02-14T10:50:17;100538.81;;;5.37;91.30
41102;BME280;26845;50.190;19.178;2023-02-14T10:52:51;100535.64;;;5.37;91.03
41102;BME280;26845;50.190;19.178;2023-02-14T10:58:14;100537.38;;;5.44;89.93
41102;BME280;26845;50.190;19.178;2023-02-14T11:00:53;100536.27;;;5.33;88.94
41102;BME280;26845;50.190;19.178;2023-02-14T11:03:22;100536.29;;;5.23;89.58
41102;BME280;26845;50.190;19.178;2023-02-14T11:05:48;100525.20;;;5.18;89.93
41102;BME280;26845;50.190;19.178;2023-02-14T11:08:21;100522.55;;;5.25;90.94
41102;BME280;26845;50.190;19.178;2023-02-14T11:10:49;100518.48;;;5.38;91.19
41102;BME280;26845;50.190;19.178;2023-02-14T11:16:29;100516.18;;;5.48;89.00
41102;BME280;26845;50.190;19.178;2023-02-14T11:19:18;100513.59;;;5.38;89.82
41102;BME280;26845;50.190;19.178;2023-02-14T11:21:47;100516.09;;;5.41;90.47
41102;BME280;26845;50.190;19.178;2023-02-14T11:24:26;100514.82;;;5.43;89.41
41102;BME280;26845;50.190;19.178;2023-02-14T11:26:54;100512.65;;;5.38;89.52
41102;BME280;26845;50.190;19.178;2023-02-14T11:29:30;100509.83;;;5.38;88.96
41102;BME280;26845;50.190;19.178;2023-02-14T11:31:56;100512.13;;;5.31;89.28
41102;BME280;26845;50.190;19.178;2023-02-14T11:37:31;100503.13;;;5.34;89.68
41102;BME280;26845;50.190;19.178;2023-02-14T11:40:00;100502.16;;;5.35;89.50
41102;BME280;26845;50.190;19.178;2023-02-14T11:42:44;100503.65;;;5.39;89.96
41102;BME280;26845;50.190;19.178;2023-02-14T11:45:33;100503.80;;;5.47;90.01
41102;BME280;26845;50.190;19.178;2023-02-14T11:48:25;100504.10;;;5.53;90.10
41102;BME280;26845;50.190;19.178;2023-02-14T11:53:36;100499.64;;;5.64;89.74
41102;BME280;26845;50.190;19.178;2023-02-14T11:56:03;100496.68;;;5.67;89.88
41102;BME280;26845;50.190;19.178;2023-02-14T11:58:38;100501.47;;;5.72;89.91
41102;BME280;26845;50.190;19.178;2023-02-14T12:01:05;100497.39;;;5.77;89.79
41102;BME280;26845;50.190;19.178;2023-02-14T12:03:41;100496.52;;;5.78;89.41
41102;BME280;26845;50.190;19.178;2023-02-14T12:06:08;100498.84;;;5.81;89.25
41102;BME280;26845;50.190;19.178;2023-02-14T12:08:36;100490.55;;;5.83;89.25
41102;BME280;26845;50.190;19.178;2023-02-14T12:11:21;100486.77;;;5.87;89.16
41102;BME280;26845;50.190;19.178;2023-02-14T12:13:54;100482.64;;;5.90;89.15
41102;BME280;26845;50.190;19.178;2023-02-14T12:16:45;100483.70;;;5.92;89.21
41102;BME280;26845;50.190;19.178;2023-02-14T12:19:19;100480.92;;;5.94;88.61
41102;BME280;26845;50.190;19.178;2023-02-14T12:21:55;100476.86;;;5.88;88.56
41102;BME280;26845;50.190;19.178;2023-02-14T12:27:31;100474.21;;;5.91;88.68
41102;BME280;26845;50.190;19.178;2023-02-14T12:30:22;100460.91;;;5.96;88.90
41102;BME280;26845;50.190;19.178;2023-02-14T12:32:53;100460.00;;;6.02;88.80
41102;BME280;26845;50.190;19.178;2023-02-14T12:38:54;100455.89;;;6.09;88.70
41102;BME280;26845;50.190;19.178;2023-02-14T12:44:32;100444.73;;;6.12;87.96
41102;BME280;26845;50.190;19.178;2023-02-14T12:47:10;100444.23;;;6.09;87.41
41102;BME280;26845;50.190;19.178;2023-02-14T12:53:01;100445.09;;;5.99;87.87
41102;BME280;26845;50.190;19.178;2023-02-14T13:06:22;100440.14;;;5.95;87.00
41102;BME280;26845;50.190;19.178;2023-02-14T13:09:02;100443.02;;;5.97;86.97
41102;BME280;26845;50.190;19.178;2023-02-14T13:15:05;100429.75;;;6.02;87.13
41102;BME280;26845;50.190;19.178;2023-02-14T13:23:12;100424.02;;;5.64;85.82
41102;BME280;26845;50.190;19.178;2023-02-14T13:25:40;100430.27;;;5.63;86.81
41102;BME280;26845;50.190;19.178;2023-02-14T13:28:12;100424.84;;;5.72;87.10
41102;BME280;26845;50.190;19.178;2023-02-14T13:30:38;100425.44;;;5.81;86.85
41102;BME280;26845;50.190;19.178;2023-02-14T13:33:26;100430.73;;;5.86;86.96
41102;BME280;26845;50.190;19.178;2023-02-14T13:36:11;100425.33;;;5.93;86.88
41102;BME280;26845;50.190;19.178;2023-02-14T13:38:49;100427.00;;;5.96;85.82
41102;BME280;26845;50.190;19.178;2023-02-14T13:41:17;100421.56;;;5.79;85.05
41102;BME280;26845;50.190;19.178;2023-02-14T13:43:51;100425.38;;;5.74;85.92
41102;BME280;26845;50.190;19.178;2023-02-14T13:46:43;100424.64;;;5.79;85.67
41102;BME280;26845;50.190;19.178;2023-02-14T13:49:25;100426.85;;;5.71;84.84
41102;BME280;26845;50.190;19.178;2023-02-14T13:51:59;100424.00;;;5.60;85.77
41102;BME280;26845;50.190;19.178;2023-02-14T13:57:24;100421.66;;;5.71;85.96
41102;BME280;26845;50.190;19.178;2023-02-14T14:02:55;100416.84;;;5.83;86.01
41102;BME280;26845;50.190;19.178;2023-02-14T14:05:43;100418.91;;;5.93;86.17
41102;BME280;26845;50.190;19.178;2023-02-14T14:08:37;100420.17;;;5.98;85.09
41102;BME280;26845;50.190;19.178;2023-02-14T14:12:35;100425.61;;;5.86;83.14
41102;BME280;26845;50.190;19.178;2023-02-14T14:14:02;100430.21;;;5.70;84.36
41102;BME280;26845;50.190;19.178;2023-02-14T14:16:33;100426.90;;;5.68;84.95
41102;BME280;26845;50.190;19.178;2023-02-14T14:21:34;100421.40;;;5.69;85.08
41102;BME280;26845;50.190;19.178;2023-02-14T14:24:20;100426.52;;;5.73;85.15
41102;BME280;26845;50.190;19.178;2023-02-14T14:27:15;100424.58;;;5.76;85.22
41102;BME280;26845;50.190;19.178;2023-02-14T14:32:35;100432.61;;;5.80;85.26
41102;BME280;26845;50.190;19.178;2023-02-14T14:37:35;100420.86;;;5.72;83.36
41102;BME280;26845;50.190;19.178;2023-02-14T14:40:06;100420.21;;;5.62;84.37
41102;BME280;26845;50.190;19.178;2023-02-14T14:42:39;100420.41;;;5.66;85.05
41102;BME280;26845;50.190;19.178;2023-02-14T14:45:08;100424.34;;;5.71;84.91
41102;BME280;26845;50.190;19.178;2023-02-14T14:47:44;100420.60;;;5.67;83.77
41102;BME280;26845;50.190;19.178;2023-02-14T14:50:25;100421.73;;;5.52;83.67
41102;BME280;26845;50.190;19.178;2023-02-14T14:52:57;100419.15;;;5.37;83.67
41102;BME280;26845;50.190;19.178;2023-02-14T14:55:26;100418.63;;;5.32;84.44
41102;BME280;26845;50.190;19.178;2023-02-14T14:57:55;100419.80;;;5.28;82.93
41102;BME280;26845;50.190;19.178;2023-02-14T15:00:23;100416.77;;;5.16;83.47
41102;BME280;26845;50.190;19.178;2023-02-14T15:03:14;100418.95;;;5.12;84.08
41102;BME280;26845;50.190;19.178;2023-02-14T15:05:47;100416.55;;;5.18;84.79
41102;BME280;26845;50.190;19.178;2023-02-14T15:08:13;100410.38;;;5.29;84.88
41102;BME280;26845;50.190;19.178;2023-02-14T15:10:39;100409.65;;;5.39;84.94
41102;BME280;26845;50.190;19.178;2023-02-14T15:13:10;100408.67;;;5.43;84.33
41102;BME280;26845;50.190;19.178;2023-02-14T15:15:57;100403.06;;;5.43;84.29
41102;BME280;26845;50.190;19.178;2023-02-14T15:18:24;100406.10;;;5.40;84.26
41102;BME280;26845;50.190;19.178;2023-02-14T15:20:52;100411.87;;;5.42;84.38
41102;BME280;26845;50.190;19.178;2023-02-14T15:23:20;100418.73;;;5.43;84.39
41102;BME280;26845;50.190;19.178;2023-02-14T15:25:47;100412.84;;;5.35;84.17